Time;durP1;ratioP1;P1;durP2;ratioP2;P2;SDS_P1;SDS_P2;PMS_P1;PMS_P2;Temp;Humidity;BMP_temperature;BMP_pressure;BME280_temperature;BME280_humidity;BME280_pressure;Samples;Min_cycle;Max_cycle;Signal;HPM_P1;HPM_P2
2022/12/19 00:02:02;;;;;;;133.30;45.65;;;;;;;-10.17;100.00;102307.47;5055561;28;20483;-74
2022/12/19 00:04:28;;;;;;;140.63;48.80;;;;;;;-10.19;100.00;102306.97;5055601;28;20024;-75
2022/12/19 00:06:57;;;;;;;129.32;43.25;;;;;;;-10.20;100.00;102301.75;5055854;28;20458;-75
2022/12/19 00:09:22;;;;;;;141.57;46.72;;;;;;;-10.25;100.00;102304.59;5055708;28;20021;-75
2022/12/19 00:11:47;;;;;;;138.55;47.20;;;;;;;-10.27;100.00;102304.91;5055590;28;20060;-75
2022/12/19 00:14:13;;;;;;;156.10;50.75;;;;;;;-10.27;100.00;102315.13;5055787;28;20052;-75
2022/12/19 00:16:38;;;;;;;137.20;47.97;;;;;;;-10.32;100.00;102310.53;5055315;28;20352;-74
2022/12/19 00:19:03;;;;;;;133.85;45.20;;;;;;;-10.31;100.00;102298.38;5037320;28;20100;-75
2022/12/19 00:21:31;;;;;;;134.57;42.75;;;;;;;-10.35;100.00;102291.81;5055586;28;20102;-75
2022/12/19 00:23:57;;;;;;;142.60;47.88;;;;;;;-10.33;100.00;102287.63;5055238;28;20064;-75
2022/12/19 00:26:28;;;;;;;140.98;44.95;;;;;;;-10.30;100.00;102291.72;5055334;28;20032;-76
2022/12/19 00:28:58;;;;;;;130.20;44.65;;;;;;;-10.32;100.00;102294.78;5037349;28;20108;-76
2022/12/19 00:31:26;;;;;;;115.82;39.92;;;;;;;-10.39;100.00;102288.84;5055606;28;20028;-75
2022/12/19 00:33:52;;;;;;;122.88;40.80;;;;;;;-10.37;100.00;102283.00;5055324;28;20033;-75
2022/12/19 00:36:23;;;;;;;123.18;42.15;;;;;;;-10.34;100.00;102274.13;5054926;28;20585;-75
2022/12/19 00:38:50;;;;;;;135.13;44.38;;;;;;;-10.32;100.00;102274.63;5020561;28;20359;-74
2022/12/19 00:41:26;;;;;;;142.65;45.72;;;;;;;-10.29;100.00;102282.28;5055241;28;20145;-74
2022/12/19 00:44:03;;;;;;;116.00;42.78;;;;;;;-10.33;100.00;102282.09;5037051;28;20025;-74
2022/12/19 00:46:30;;;;;;;133.10;43.20;;;;;;;-10.20;100.00;102283.22;5037102;28;20028;-75
2022/12/19 00:48:55;;;;;;;118.30;42.40;;;;;;;-10.25;100.00;102271.44;5020584;28;20020;-75
2022/12/19 00:51:23;;;;;;;129.35;40.97;;;;;;;-10.23;100.00;102272.78;5054811;28;20025;-74
2022/12/19 00:53:49;;;;;;;127.72;38.25;;;;;;;-10.18;100.00;102293.97;5036881;28;20474;-76
2022/12/19 00:56:17;;;;;;;110.22;40.13;;;;;;;-10.20;100.00;102269.41;5054743;28;20028;-75
2022/12/19 00:58:43;;;;;;;93.88;35.45;;;;;;;-10.22;100.00;102273.59;5036407;28;20570;-75
2022/12/19 01:01:12;;;;;;;125.32;42.03;;;;;;;-10.22;100.00;102268.88;5037028;28;20021;-74
2022/12/19 01:03:38;;;;;;;124.75;43.42;;;;;;;-10.24;100.00;102270.34;5019981;28;20024;-75
2022/12/19 01:06:04;;;;;;;125.15;39.47;;;;;;;-10.20;100.00;102272.19;5053893;28;20025;-75
2022/12/19 01:08:29;;;;;;;136.43;41.13;;;;;;;-10.29;100.00;102265.72;5054717;28;20055;-75
2022/12/19 01:10:55;;;;;;;123.80;43.30;;;;;;;-10.25;100.00;102277.78;5054413;28;20028;-75
2022/12/19 01:13:21;;;;;;;121.00;43.00;;;;;;;-10.22;100.00;102276.34;5054150;28;20021;-75
2022/12/19 01:15:47;;;;;;;127.22;43.30;;;;;;;-10.26;100.00;102284.44;5054440;28;20037;-76
2022/12/19 01:18:13;;;;;;;130.48;42.75;;;;;;;-10.26;100.00;102272.56;5036471;28;20116;-75
2022/12/19 01:20:40;;;;;;;138.13;41.80;;;;;;;-10.24;100.00;102262.88;5036575;28;20028;-74
2022/12/19 01:23:06;;;;;;;114.75;38.92;;;;;;;-10.23;100.00;102255.38;5054151;28;20028;-75
2022/12/19 01:25:33;;;;;;;113.55;39.00;;;;;;;-10.27;100.00;102246.06;5054025;28;20021;-74
2022/12/19 01:27:59;;;;;;;125.47;39.95;;;;;;;-10.25;100.00;102241.88;5054233;28;20027;-75
2022/12/19 01:30:25;;;;;;;129.13;40.45;;;;;;;-10.34;100.00;102230.72;5054122;28;20111;-74
2022/12/19 01:32:50;;;;;;;132.40;45.00;;;;;;;-10.42;100.00;102228.66;5054095;28;20051;-75
2022/12/19 01:35:15;;;;;;;120.18;40.63;;;;;;;-10.40;100.00;102234.72;5054365;28;20052;-75
2022/12/19 01:37:41;;;;;;;116.85;38.20;;;;;;;-10.37;100.00;102227.75;5054570;28;20024;-76
2022/12/19 01:40:06;;;;;;;105.28;37.60;;;;;;;-10.35;100.00;102223.59;5054290;28;20024;-75
2022/12/19 01:42:35;;;;;;;123.75;38.53;;;;;;;-10.35;100.00;102209.78;5036040;28;20484;-76
2022/12/19 01:45:15;;;;;;;118.40;41.40;;;;;;;-10.36;100.00;102204.53;5053723;28;20025;-75
2022/12/19 01:47:45;;;;;;;112.07;42.10;;;;;;;-10.41;100.00;102197.16;5035760;28;20025;-75
2022/12/19 01:50:15;;;;;;;112.60;36.90;;;;;;;-10.41;100.00;102188.06;5053853;28;20024;-75
2022/12/19 01:52:41;;;;;;;112.75;38.33;;;;;;;-10.41;100.00;102179.78;5056187;28;20099;-75
2022/12/19 01:55:07;;;;;;;114.32;40.90;;;;;;;-10.45;100.00;102187.84;5073231;28;20028;-76
2022/12/19 01:57:32;;;;;;;136.57;43.40;;;;;;;-10.46;100.00;102171.59;5055308;28;20489;-76
2022/12/19 01:59:58;;;;;;;111.72;38.95;;;;;;;-10.48;100.00;102174.63;5055433;28;20032;-75
2022/12/19 02:02:28;;;;;;;121.05;39.78;;;;;;;-10.43;100.00;102169.03;5055556;28;20063;-75
2022/12/19 02:04:54;;;;;;;121.13;41.20;;;;;;;-10.39;100.00;102166.50;5073521;28;20031;-76
2022/12/19 02:07:21;;;;;;;145.35;45.28;;;;;;;-10.40;100.00;102160.16;5073490;28;20020;-75
2022/12/19 02:09:48;;;;;;;131.70;46.58;;;;;;;-10.39;100.00;102160.97;5073419;28;20024;-75
2022/12/19 02:12:14;;;;;;;134.10;46.88;;;;;;;-10.40;100.00;102156.56;5073216;28;20036;-75
2022/12/19 02:14:40;;;;;;;151.10;49.30;;;;;;;-10.36;100.00;102143.78;5072993;28;20025;-75
2022/12/19 02:17:23;;;;;;;141.25;47.92;;;;;;;-10.29;100.00;102152.44;5038522;28;20050;-75
2022/12/19 02:20:26;;;;;;;132.98;46.55;;;;;;;-10.29;100.00;102157.97;5073028;28;20119;-75
2022/12/19 02:23:18;;;;;;;144.55;46.55;;;;;;;-10.29;100.00;102160.75;5073120;28;20028;-75
2022/12/19 02:25:59;;;;;;;121.38;45.55;;;;;;;-10.22;100.00;102152.03;5073143;28;20029;-75
2022/12/19 02:28:32;;;;;;;143.75;47.13;;;;;;;-10.20;100.00;102144.25;5072946;28;20033;-75
2022/12/19 02:31:19;;;;;;;136.80;43.90;;;;;;;-10.23;100.00;102140.16;5055264;28;20095;-76
2022/12/19 02:34:16;;;;;;;147.93;47.20;;;;;;;-10.11;100.00;102143.22;5055145;28;20024;-74
2022/12/19 02:36:49;;;;;;;146.93;49.33;;;;;;;-10.07;100.00;102132.38;5057051;28;20127;-74
2022/12/19 02:39:45;;;;;;;155.25;49.90;;;;;;;-10.07;100.00;102135.13;5054983;28;20020;-75
2022/12/19 02:42:14;;;;;;;144.73;49.97;;;;;;;-9.99;100.00;102129.69;5073328;28;20021;-76
2022/12/19 02:44:44;;;;;;;141.43;49.83;;;;;;;-10.03;100.00;102131.44;5054944;28;20430;-74
2022/12/19 02:47:10;;;;;;;118.50;43.95;;;;;;;-10.05;100.00;102125.44;5054751;28;20481;-75
2022/12/19 02:49:37;;;;;;;136.07;46.70;;;;;;;-10.08;100.00;102120.50;5054863;28;20168;-74
2022/12/19 02:52:28;;;;;;;143.82;48.30;;;;;;;-10.05;100.00;102110.78;5072799;28;20024;-75
2022/12/19 02:54:56;;;;;;;140.07;47.63;;;;;;;-10.10;100.00;102091.53;5034226;28;20484;-75
2022/12/19 02:57:35;;;;;;;148.25;47.20;;;;;;;-10.10;100.00;102088.78;5054537;28;20067;-75
2022/12/19 03:00:15;;;;;;;151.18;50.03;;;;;;;-10.10;100.00;102084.06;5072934;28;20107;-74
2022/12/19 03:02:50;;;;;;;136.40;49.47;;;;;;;-10.10;100.00;102086.03;5072785;28;20125;-75
2022/12/19 03:05:46;;;;;;;132.73;48.35;;;;;;;-10.07;100.00;102090.91;5072929;28;20048;-74
2022/12/19 03:08:20;;;;;;;125.63;46.17;;;;;;;-10.07;100.00;102097.25;5072727;28;20035;-75
2022/12/19 03:10:55;;;;;;;135.63;45.67;;;;;;;-10.08;100.00;102092.84;5072556;28;20469;-76
2022/12/19 03:13:22;;;;;;;135.90;50.05;;;;;;;-10.04;100.00;102093.06;5054667;28;20107;-75
2022/12/19 03:15:47;;;;;;;133.88;47.97;;;;;;;-10.00;100.00;102092.16;5072618;28;20100;-76
2022/12/19 03:18:14;;;;;;;153.25;52.30;;;;;;;-10.05;100.00;102078.44;5072619;28;20056;-75
2022/12/19 03:20:55;;;;;;;145.55;51.00;;;;;;;-10.02;100.00;102076.97;5054774;28;20035;-76
2022/12/19 03:23:21;;;;;;;133.88;50.50;;;;;;;-10.01;100.00;102064.81;5054766;28;20040;-75
2022/12/19 03:25:49;;;;;;;156.52;53.28;;;;;;;-10.03;100.00;102064.28;5054502;28;20405;-74
2022/12/19 03:28:21;;;;;;;139.98;50.75;;;;;;;-10.04;100.00;102063.47;5054643;28;20066;-74
2022/12/19 03:30:47;;;;;;;145.73;49.92;;;;;;;-10.07;100.00;102060.50;5075721;28;20024;-75
2022/12/19 03:33:15;;;;;;;142.55;52.85;;;;;;;-10.05;100.00;102061.03;5058956;28;20428;-75
2022/12/19 03:35:42;;;;;;;146.10;54.13;;;;;;;-9.97;100.00;102060.28;5075875;28;20057;-75
2022/12/19 03:38:09;;;;;;;160.55;51.17;;;;;;;-9.96;100.00;102067.47;5058184;28;20028;-75
2022/12/19 03:40:34;;;;;;;160.32;55.33;;;;;;;-9.94;100.00;102068.78;5076313;28;20035;-74
2022/12/19 03:43:09;;;;;;;151.93;53.85;;;;;;;-9.97;100.00;102069.41;5058077;28;20040;-74
2022/12/19 03:45:56;;;;;;;145.57;54.45;;;;;;;-9.98;100.00;102066.94;5059161;28;20067;-75
2022/12/19 03:48:32;;;;;;;156.30;50.05;;;;;;;-10.03;100.00;102064.28;5058268;28;20028;-75
2022/12/19 03:51:07;;;;;;;157.85;53.13;;;;;;;-10.03;100.00;102065.13;5057695;28;20035;-75
2022/12/19 03:53:35;;;;;;;152.88;52.03;;;;;;;-10.08;100.00;102056.94;5075630;28;20036;-75
2022/12/19 03:56:10;;;;;;;149.50;47.80;;;;;;;-10.13;100.00;102043.22;5075515;28;20036;-76
2022/12/19 03:58:37;;;;;;;150.63;53.25;;;;;;;-10.12;100.00;102041.28;5075530;28;20401;-76
2022/12/19 04:01:03;;;;;;;133.77;47.05;;;;;;;-10.10;100.00;102039.03;5057749;28;20033;-75
2022/12/19 04:03:29;;;;;;;150.20;50.35;;;;;;;-10.02;100.00;102032.78;5057701;28;20035;-75
2022/12/19 04:05:56;;;;;;;147.85;53.42;;;;;;;-10.10;100.00;102020.53;5075569;28;20024;-75
2022/12/19 04:08:23;;;;;;;147.05;52.30;;;;;;;-10.05;100.00;102023.16;5057714;28;20052;-75
2022/12/19 04:11:02;;;;;;;128.43;50.60;;;;;;;-10.01;100.00;102031.66;5075574;28;20051;-75
2022/12/19 04:13:41;;;;;;;169.40;55.92;;;;;;;-10.06;100.00;102026.22;5075207;28;20357;-75
2022/12/19 04:16:10;;;;;;;152.32;52.10;;;;;;;-10.06;100.00;102026.22;5075327;28;20029;-75
2022/12/19 04:18:36;;;;;;;136.32;45.42;;;;;;;-10.02;100.00;102022.53;5075149;28;20032;-75
2022/12/19 04:21:07;;;;;;;144.20;50.00;;;;;;;-10.06;100.00;102016.00;5057189;28;20418;-75
2022/12/19 04:23:39;;;;;;;138.43;50.75;;;;;;;-10.03;100.00;102022.84;5057448;28;20032;-74
2022/12/19 04:26:06;;;;;;;147.05;51.85;;;;;;;-9.99;100.00;102021.91;5057340;28;20036;-74
2022/12/19 04:28:37;;;;;;;131.98;50.05;;;;;;;-9.93;100.00;102019.84;5057529;28;20032;-74
2022/12/19 04:31:04;;;;;;;123.65;44.75;;;;;;;-9.97;100.00;102005.00;5056992;28;20032;-75
2022/12/19 04:33:29;;;;;;;144.70;51.40;;;;;;;-9.96;100.00;102012.19;5057017;28;20111;-76
2022/12/19 04:35:55;;;;;;;143.05;49.15;;;;;;;-10.01;100.00;102021.41;5056889;28;20127;-76
2022/12/19 04:38:25;;;;;;;142.18;49.10;;;;;;;-9.90;100.00;102031.09;5073333;28;20082;-76
2022/12/19 04:40:51;;;;;;;126.25;43.40;;;;;;;-9.87;100.00;102019.41;5073915;28;20086;-76
2022/12/19 04:43:18;;;;;;;126.28;45.65;;;;;;;-9.84;100.00;102015.19;5072594;28;20036;-76
2022/12/19 04:45:45;;;;;;;133.25;48.42;;;;;;;-9.82;100.00;102015.72;5055665;28;20032;-76
2022/12/19 04:48:12;;;;;;;145.10;45.47;;;;;;;-9.78;100.00;102015.91;5074614;28;20032;-75
2022/12/19 04:50:38;;;;;;;129.70;46.00;;;;;;;-9.78;100.00;102016.72;5074814;28;20115;-76
2022/12/19 04:53:05;;;;;;;145.05;47.63;;;;;;;-9.72;100.00;101995.28;5073813;28;20068;-75
2022/12/19 04:55:30;;;;;;;135.30;46.88;;;;;;;-9.68;100.00;102005.41;5056580;28;20093;-76
2022/12/19 04:57:57;;;;;;;128.18;44.30;;;;;;;-9.68;100.00;101994.34;5073536;28;20052;-75
2022/12/19 05:00:23;;;;;;;124.38;42.70;;;;;;;-9.63;100.00;101990.63;5074368;28;20032;-75
2022/12/19 05:02:51;;;;;;;120.18;44.08;;;;;;;-9.69;100.00;101989.13;5056499;28;20462;-76
2022/12/19 05:05:17;;;;;;;130.32;44.65;;;;;;;-9.76;100.00;101980.47;5074602;28;20046;-75
2022/12/19 05:07:43;;;;;;;129.05;45.10;;;;;;;-9.72;100.00;101990.56;5073911;28;20040;-75
2022/12/19 05:10:08;;;;;;;135.55;47.25;;;;;;;-9.82;100.00;101982.53;5056516;28;20040;-74
2022/12/19 05:12:35;;;;;;;138.02;45.25;;;;;;;-9.82;100.00;101984.47;5073341;28;20115;-75
2022/12/19 05:15:02;;;;;;;124.05;43.50;;;;;;;-9.85;100.00;101997.00;5056024;28;20052;-75
2022/12/19 05:17:28;;;;;;;120.60;44.15;;;;;;;-9.86;100.00;101992.59;5054361;28;20089;-75
2022/12/19 05:19:57;;;;;;;122.60;45.55;;;;;;;-9.84;100.00;102006.91;5070043;28;20040;-75
2022/12/19 05:22:29;;;;;;;145.73;48.40;;;;;;;-9.80;100.00;102002.41;5056054;28;20028;-75
2022/12/19 05:24:54;;;;;;;129.60;44.65;;;;;;;-9.87;100.00;102005.59;5074084;28;20469;-75
2022/12/19 05:27:21;;;;;;;133.85;48.25;;;;;;;-9.99;100.00;101993.47;5073195;28;20045;-76
2022/12/19 05:29:47;;;;;;;158.18;50.42;;;;;;;-9.95;100.00;102008.28;5074077;28;20177;-76
2022/12/19 05:32:13;;;;;;;138.13;47.80;;;;;;;-9.96;100.00;101995.59;5054290;28;20037;-74
2022/12/19 05:34:40;;;;;;;117.97;44.42;;;;;;;-9.98;100.00;101987.59;5035652;28;20362;-75
2022/12/19 05:37:06;;;;;;;148.88;51.00;;;;;;;-9.95;100.00;101986.19;5054007;28;20074;-75
2022/12/19 05:39:33;;;;;;;145.80;49.60;;;;;;;-9.99;100.00;101985.97;5052679;28;20048;-75
2022/12/19 05:42:00;;;;;;;142.35;49.90;;;;;;;-9.96;100.00;101992.84;5038704;28;20044;-75
2022/12/19 05:44:27;;;;;;;131.13;46.03;;;;;;;-9.88;100.00;101983.78;5053599;28;20572;-75
2022/12/19 05:46:54;;;;;;;137.25;49.85;;;;;;;-9.92;100.00;101983.59;5050675;28;20085;-74
2022/12/19 05:49:20;;;;;;;148.10;48.30;;;;;;;-9.93;100.00;101973.66;5053447;28;20045;-76
2022/12/19 05:51:47;;;;;;;131.80;46.55;;;;;;;-9.92;100.00;101960.66;5053020;28;20124;-75
2022/12/19 05:54:13;;;;;;;129.55;45.40;;;;;;;-9.89;100.00;101968.31;5035763;28;20067;-76
2022/12/19 05:56:39;;;;;;;116.00;47.40;;;;;;;-9.84;100.00;101961.88;5035997;28;20029;-75
2022/12/19 05:59:05;;;;;;;137.00;45.65;;;;;;;-9.84;100.00;101951.59;5037142;28;20061;-75
2022/12/19 06:01:31;;;;;;;129.10;46.53;;;;;;;-9.82;100.00;101959.59;5056704;28;20048;-75
2022/12/19 06:03:59;;;;;;;115.68;43.75;;;;;;;-9.81;100.00;101952.94;5054729;28;20024;-75
2022/12/19 06:06:26;;;;;;;121.53;43.90;;;;;;;-9.81;100.00;101961.25;5035472;28;20040;-76
2022/12/19 06:08:57;;;;;;;129.00;45.13;;;;;;;-9.77;100.00;101957.53;5035507;28;20036;-76
2022/12/19 06:11:35;;;;;;;122.25;44.42;;;;;;;-9.78;100.00;101966.13;5053456;28;20079;-75
2022/12/19 06:14:02;;;;;;;118.75;44.30;;;;;;;-9.77;100.00;101957.53;5045642;28;20025;-77
2022/12/19 06:16:28;;;;;;;120.28;41.72;;;;;;;-9.77;100.00;101970.53;5035718;28;20041;-77
2022/12/19 06:18:54;;;;;;;127.43;43.40;;;;;;;-9.77;100.00;101967.75;5053183;28;20029;-76
2022/12/19 06:21:33;;;;;;;117.65;44.25;;;;;;;-9.74;100.00;101956.06;5053326;28;20033;-77
2022/12/19 06:24:00;;;;;;;122.20;44.20;;;;;;;-9.66;100.00;101969.97;5071576;28;20393;-76
2022/12/19 06:26:25;;;;;;;105.63;42.33;;;;;;;-9.71;100.00;101972.03;5038265;28;20024;-77
2022/12/19 06:28:52;;;;;;;113.03;41.65;;;;;;;-9.67;100.00;101982.16;5072712;28;20047;-75
2022/12/19 06:31:18;;;;;;;117.18;42.55;;;;;;;-9.70;100.00;101968.16;5073004;28;20385;-76
2022/12/19 06:33:44;;;;;;;122.45;44.97;;;;;;;-9.66;100.00;101978.25;5072783;28;20039;-76
2022/12/19 06:36:16;;;;;;;118.53;43.10;;;;;;;-9.64;100.00;101967.69;5072882;28;20032;-76
2022/12/19 06:38:41;;;;;;;118.93;43.05;;;;;;;-9.60;100.00;101976.19;5073276;28;20032;-76
2022/12/19 06:43:57;;;;;;;124.82;42.97;;;;;;;-9.51;100.00;101980.66;5055810;28;20505;-75
2022/12/19 06:46:22;;;;;;;114.97;45.60;;;;;;;-9.43;100.00;101987.34;5070794;28;20021;-75
2022/12/19 06:48:47;;;;;;;113.30;43.38;;;;;;;-9.38;100.00;101962.31;5071188;28;20036;-76
2022/12/19 06:51:13;;;;;;;117.05;42.35;;;;;;;-9.41;100.00;101962.97;5070662;28;20470;-75
2022/12/19 06:53:39;;;;;;;109.53;39.05;;;;;;;-9.29;100.00;101968.72;5070766;28;20028;-75
2022/12/19 06:56:05;;;;;;;110.97;38.50;;;;;;;-9.22;100.00;101957.19;5070192;28;20263;-75
2022/12/19 06:58:32;;;;;;;118.95;41.25;;;;;;;-9.16;100.00;101956.75;5071125;28;20063;-77
2022/12/19 07:00:57;;;;;;;114.43;42.67;;;;;;;-9.09;100.00;101961.81;5070602;28;20028;-76
2022/12/19 07:03:31;;;;;;;112.88;40.60;;;;;;;-9.08;100.00;101958.72;5069652;28;20489;-76
2022/12/19 07:05:56;;;;;;;107.18;37.75;;;;;;;-9.07;100.00;101954.84;5056451;28;20058;-78
2022/12/19 07:08:22;;;;;;;109.15;39.85;;;;;;;-9.02;100.00;101956.63;5074458;28;20024;-75
2022/12/19 07:10:47;;;;;;;102.50;38.65;;;;;;;-8.95;100.00;101934.81;5074406;28;20035;-76
2022/12/19 07:13:13;;;;;;;93.03;35.72;;;;;;;-8.87;100.00;101936.00;5074824;28;20074;-77
2022/12/19 07:15:39;;;;;;;99.13;37.70;;;;;;;-8.76;100.00;101938.13;5076398;28;20056;-78
2022/12/19 07:18:05;;;;;;;95.68;35.28;;;;;;;-8.70;100.00;101939.63;5076313;28;20050;-76
2022/12/19 07:20:32;;;;;;;92.65;34.55;;;;;;;-8.74;100.00;101935.06;5058391;28;20355;-76
2022/12/19 07:22:57;;;;;;;101.72;36.97;;;;;;;-8.78;100.00;101923.81;5075465;28;20051;-77
2022/12/19 07:25:23;;;;;;;93.45;36.15;;;;;;;-8.67;100.00;101929.88;5076177;28;20139;-76
2022/12/19 07:27:48;;;;;;;90.22;34.88;;;;;;;-8.57;100.00;101924.84;5068807;28;20021;-78
2022/12/19 07:30:13;;;;;;;99.38;35.35;;;;;;;-8.49;100.00;101912.13;5056598;28;20095;-77
2022/12/19 07:32:39;;;;;;;96.85;36.88;;;;;;;-8.40;100.00;101912.13;5075535;28;20013;-76
2022/12/19 07:35:08;;;;;;;92.22;34.95;;;;;;;-8.36;100.00;101911.16;5076365;28;20021;-77
2022/12/19 07:37:33;;;;;;;97.32;33.40;;;;;;;-8.30;100.00;101912.63;5076524;28;20032;-78
2022/12/19 07:39:59;;;;;;;88.88;32.90;;;;;;;-8.17;100.00;101917.19;5069410;28;20031;-77
2022/12/19 07:42:24;;;;;;;102.50;35.35;;;;;;;-8.12;100.00;101902.38;5056368;28;20060;-78
2022/12/19 07:44:50;;;;;;;108.25;35.60;;;;;;;-7.94;100.00;101917.84;5038082;28;20405;-77
2022/12/19 07:47:15;;;;;;;88.70;33.08;;;;;;;-7.81;100.00;101910.44;5056104;28;20136;-78
2022/12/19 07:49:40;;;;;;;94.07;34.40;;;;;;;-7.77;100.00;101903.91;5056218;28;20454;-76
2022/12/19 07:52:07;;;;;;;93.50;34.72;;;;;;;-7.63;100.00;101916.78;5037988;28;20445;-76
2022/12/19 07:54:32;;;;;;;87.18;34.20;;;;;;;-7.53;100.00;101910.91;5056021;28;20017;-76
2022/12/19 07:56:57;;;;;;;86.60;33.45;;;;;;;-7.43;100.00;101905.00;5055952;28;20074;-76
2022/12/19 07:59:23;;;;;;;104.13;34.85;;;;;;;-7.35;100.00;101901.34;5055495;28;20115;-74
2022/12/19 08:01:48;;;;;;;99.72;34.92;;;;;;;-7.29;100.00;101895.31;5055669;28;20021;-77
2022/12/19 08:04:14;;;;;;;95.88;36.28;;;;;;;-7.20;100.00;101903.59;5056027;28;20017;-77
2022/12/19 08:06:39;;;;;;;86.88;33.65;;;;;;;-7.12;100.00;101904.69;5055731;28;20467;-76
2022/12/19 08:09:04;;;;;;;92.28;35.63;;;;;;;-7.00;100.00;101899.25;5054067;28;20024;-78
2022/12/19 08:11:30;;;;;;;94.15;32.67;;;;;;;-6.96;100.00;101892.69;5021156;28;20017;-78
2022/12/19 08:13:56;;;;;;;92.90;33.47;;;;;;;-6.88;100.00;101900.16;5055708;28;20021;-79
2022/12/19 08:16:23;;;;;;;84.75;30.70;;;;;;;-6.68;100.00;101898.56;5055681;28;20053;-78
2022/12/19 08:18:49;;;;;;;86.97;32.17;;;;;;;-6.54;100.00;101890.00;5056131;28;20029;-78
2022/12/19 08:21:14;;;;;;;80.80;31.27;;;;;;;-6.39;100.00;101892.16;5055572;28;20028;-77
2022/12/19 08:23:40;;;;;;;69.25;27.52;;;;;;;-6.22;100.00;101891.19;5055362;28;20462;-75
2022/12/19 08:26:07;;;;;;;78.20;28.70;;;;;;;-6.10;100.00;101894.06;5055455;28;20049;-78
2022/12/19 08:28:34;;;;;;;83.30;30.67;;;;;;;-5.96;100.00;101887.06;5037628;28;20033;-78
2022/12/19 08:31:09;;;;;;;75.72;29.25;;;;;;;-5.77;100.00;101882.94;5055395;28;20029;-78
2022/12/19 08:33:35;;;;;;;71.43;28.58;;;;;;;-5.69;100.00;101877.28;5037413;28;20470;-76
2022/12/19 08:36:09;;;;;;;80.78;30.15;;;;;;;-5.54;100.00;101865.47;5055113;28;20100;-76
2022/12/19 08:38:35;;;;;;;82.25;29.70;;;;;;;-5.36;100.00;101868.06;5055372;28;20033;-78
2022/12/19 08:41:01;;;;;;;82.15;30.05;;;;;;;-5.27;100.00;101875.16;5055240;28;20056;-76
2022/12/19 08:43:27;;;;;;;71.00;28.17;;;;;;;-5.26;100.00;101862.06;5054931;28;20440;-77
2022/12/19 08:45:52;;;;;;;76.05;31.80;;;;;;;-5.30;100.00;101853.56;5187534;22;20284;-75
2022/12/19 08:48:18;;;;;;;83.13;29.45;;;;;;;-5.43;100.00;101824.06;5075244;28;20032;-74
2022/12/19 08:50:57;;;;;;;82.07;30.73;;;;;;;-5.30;100.00;101855.53;5075205;28;20036;-75
2022/12/19 08:53:26;;;;;;;77.45;27.63;;;;;;;-5.35;100.00;101847.41;5075014;28;20121;-74
2022/12/19 08:55:56;;;;;;;70.63;27.50;;;;;;;-5.42;100.00;101856.34;5039448;28;20052;-76
2022/12/19 08:58:24;;;;;;;62.10;26.60;;;;;;;-5.52;100.00;101857.59;5074923;28;20036;-75
2022/12/19 09:00:51;;;;;;;68.03;27.77;;;;;;;-5.54;100.00;101851.56;5057164;28;20028;-75
2022/12/19 09:03:17;;;;;;;66.25;26.25;;;;;;;-5.55;100.00;101849.94;5044017;28;20033;-76
2022/12/19 09:05:42;;;;;;;70.43;26.63;;;;;;;-5.52;100.00;101856.78;5020167;28;20449;-77
2022/12/19 09:08:21;;;;;;;65.70;26.02;;;;;;;-5.52;100.00;101849.25;5054867;28;20051;-75
2022/12/19 09:10:47;;;;;;;68.88;26.40;;;;;;;-5.48;100.00;101854.94;5020308;28;20056;-74
2022/12/19 09:13:14;;;;;;;64.78;27.30;;;;;;;-5.41;100.00;101841.25;5036659;28;20052;-75
2022/12/19 09:15:39;;;;;;;67.78;26.08;;;;;;;-5.38;100.00;101840.56;5054653;28;20029;-75
2022/12/19 09:18:06;;;;;;;68.05;26.92;;;;;;;-5.32;100.00;101841.16;5037184;28;20111;-75
2022/12/19 09:20:31;;;;;;;64.43;24.30;;;;;;;-5.24;100.00;101840.22;5020222;28;20044;-74
2022/12/19 09:22:57;;;;;;;68.57;27.27;;;;;;;-5.19;100.00;101828.84;5054702;28;20036;-76
2022/12/19 09:25:22;;;;;;;68.82;25.40;;;;;;;-5.14;100.00;101821.06;5054695;28;20070;-75
2022/12/19 09:27:49;;;;;;;70.88;26.17;;;;;;;-4.98;100.00;101837.91;5054068;28;20020;-74
2022/12/19 09:30:15;;;;;;;69.28;26.70;;;;;;;-4.93;100.00;101815.38;5054401;28;20029;-74
2022/12/19 09:32:43;;;;;;;64.93;25.33;;;;;;;-4.79;100.00;101826.97;5054579;28;20455;-74
2022/12/19 09:35:08;;;;;;;69.00;24.52;;;;;;;-4.64;100.00;101814.25;5036219;28;20069;-76
2022/12/19 09:37:34;;;;;;;63.83;24.30;;;;;;;-4.49;100.00;101809.94;5036200;28;20065;-76
2022/12/19 09:40:02;;;;;;;55.95;24.13;;;;;;;-4.46;100.00;101806.41;5054092;28;20028;-76
2022/12/19 09:42:46;;;;;;;54.25;23.02;;;;;;;-4.37;100.00;101804.31;5054040;28;20046;-76
2022/12/19 09:45:29;;;;;;;54.03;22.42;;;;;;;-4.26;100.00;101808.22;5036071;28;20082;-78
2022/12/19 09:47:57;;;;;;;50.95;22.95;;;;;;;-4.19;100.00;101789.72;5053978;28;20037;-76
2022/12/19 09:50:42;;;;;;;70.72;27.63;;;;;;;-4.05;100.00;101778.13;5036314;28;20112;-76
2022/12/19 09:53:37;;;;;;;61.58;28.17;;;;;;;-3.92;100.00;101768.50;5019382;28;20040;-75
2022/12/19 09:56:13;;;;;;;62.75;24.27;;;;;;;-3.81;100.00;101777.97;5032372;28;20110;-73
2022/12/19 09:58:46;;;;;;;54.60;23.17;;;;;;;-3.73;100.00;101772.59;5053734;28;20040;-75
2022/12/19 10:01:47;;;;;;;45.40;21.83;;;;;;;-3.55;100.00;101780.25;5019558;28;20040;-76
2022/12/19 10:04:17;;;;;;;60.28;22.13;;;;;;;-3.42;100.00;101773.38;5035943;28;20025;-74
2022/12/19 10:06:51;;;;;;;57.15;19.90;;;;;;;-3.35;100.00;101767.16;5053517;28;20025;-74
2022/12/19 10:09:20;;;;;;;46.88;19.88;;;;;;;-3.28;100.00;101758.94;5054226;28;20033;-75
2022/12/19 10:12:05;;;;;;;58.33;22.70;;;;;;;-3.19;100.00;101748.41;5056328;28;20037;-75
2022/12/19 10:15:00;;;;;;;51.65;22.27;;;;;;;-3.13;100.00;101754.50;5058664;28;20033;-76
2022/12/19 10:17:53;;;;;;;58.65;21.75;;;;;;;-3.02;100.00;101750.78;5057091;28;20025;-76
2022/12/19 10:20:37;;;;;;;55.63;22.83;;;;;;;-2.94;100.00;101746.19;5055453;28;20029;-76
2022/12/19 10:23:26;;;;;;;53.10;21.98;;;;;;;-2.85;100.00;101737.56;5021552;28;20028;-75
2022/12/19 10:26:05;;;;;;;49.45;21.20;;;;;;;-2.85;100.00;101723.59;5053781;28;20382;-74
2022/12/19 10:28:52;;;;;;;44.40;19.88;;;;;;;-2.81;100.00;101716.91;5053613;28;20027;-75
2022/12/19 10:31:41;;;;;;;49.55;20.88;;;;;;;-2.74;100.00;101711.44;5053517;28;20077;-76
2022/12/19 10:34:36;;;;;;;52.90;21.05;;;;;;;-2.62;100.00;101714.09;5013077;28;20090;-76
2022/12/19 10:37:16;;;;;;;42.13;17.95;;;;;;;-2.57;100.00;101710.19;5035926;28;20074;-77
2022/12/19 10:40:07;;;;;;;43.65;18.15;;;;;;;-2.46;100.00;101722.41;5022289;28;20076;-76
2022/12/19 10:43:00;;;;;;;49.03;20.10;;;;;;;-2.44;100.00;101717.25;5039599;28;20028;-76
2022/12/19 10:45:33;;;;;;;39.88;19.30;;;;;;;-2.40;100.00;101701.38;5057522;28;20103;-76
2022/12/19 10:48:02;;;;;;;50.78;21.52;;;;;;;-2.31;100.00;101692.72;5039650;28;20037;-76
2022/12/19 10:50:37;;;;;;;48.63;21.45;;;;;;;-2.18;100.00;101696.97;5039764;28;20490;-75
2022/12/19 10:53:06;;;;;;;47.85;20.27;;;;;;;-2.12;100.00;101699.09;5057688;28;20032;-75
2022/12/19 10:55:50;;;;;;;52.50;21.80;;;;;;;-2.03;100.00;101694.06;5057625;28;20450;-76
2022/12/19 10:58:26;;;;;;;47.22;19.75;;;;;;;-1.91;100.00;101697.84;5039538;28;20032;-74
2022/12/19 11:01:10;;;;;;;50.20;19.38;;;;;;;-1.77;100.00;101698.91;5057309;28;20025;-74
2022/12/19 11:03:40;;;;;;;56.47;19.60;;;;;;;-1.65;100.00;101695.09;5062045;28;20382;-77
2022/12/19 11:06:26;;;;;;;48.05;20.05;;;;;;;-1.46;100.00;101688.59;5038742;28;20060;-80
2022/12/19 11:08:51;;;;;;;46.25;19.42;;;;;;;-1.32;100.00;101674.81;5066917;28;20032;-78
2022/12/19 11:11:17;;;;;;;50.70;20.20;;;;;;;-1.15;100.00;101677.84;5042389;28;20033;-76